Historyczne dane pomiarowe

Dodano dane terminowe – wersja testowa.

Dane z okresu 1951-2019

Wersja bazy: 1.34 [2019-03-16, lista zmian], aktualizacja planowana na 2019-04-15

Dane meteo z obszaru Polski uzyskane na podstawie danych udostępnionych przez Instytut Meteorologii i Gospodarki Wodnej – Państwowy Instytut Badawczy.

 

Wybierz Datę:    

       

TemperaturaWilgotnośćWiatrCiśnienieOpadyŚniegCzas trwania zjawisk
 Stacja t tx tn tng RH VA  wxwx mslp ppp RRR   cm mm wxwxwxwxwxwxwx
1999-08-14 15.7 21.9 8.9 6.2-- 5.0 2.7---- 4.2------------
1999-08-13 14.9 19.7 10.9 8.6-- 7.0 2.0---- 4.6------------
1999-08-12 15.8 20.3 12.3 9.5-- 7.7 3.0---- 1.4------------
1999-08-11 18.0 22.0 14.9 13.7-- 7.3 4.0---- 0.0------------
1999-08-10 20.9 26.8 16.3 15.8-- 2.3 2.0---- 13.6------------
1999-08-09 21.6 28.6 16.5 15.7-- 5.0 5.3---- 7.0------------
1999-08-08 22.5 29.3 16.5 15.4-- 3.7 3.3---- 2.5------------
1999-08-07 22.3 29.6 15.0 11.3-- 3.3 1.3---- 1.0------------
1999-08-06 21.2 27.1 13.9 12.4-- 3.7 2.3---- 0.0------------
1999-08-05 21.6 30.1 12.1 7.2-- 3.0 3.3---- 0.0------------
1999-08-04 21.5 29.8 11.8 6.6-- 3.3 2.0---- 0.0------------
1999-08-03 20.7 28.3 11.8 6.9-- 0.7 2.7---- 0.0------------
1999-08-02 20.6 28.3 12.9 6.3-- 3.0 1.3---- 0.0------------
1999-08-01 21.6 29.4 13.7 10.1-- 2.0 2.7---- 0.0------------
1999-07-31 22.1 28.9 14.0 9.5-- 3.3 3.0---- 0.0------------
1999-07-30 19.8 28.0 9.9 5.3-- 1.3 2.7---- 0.0------------
1999-07-29 20.0 26.7 12.9 4.2-- 2.0 2.7---- 0.0------------
1999-07-28 18.6 25.9 10.6 5.1-- 1.3 5.7---- 0.0------------
1999-07-27 16.2 22.9 8.3 6.1-- 4.7 2.7---- 0.0------------
1999-07-26 19.6 24.4 16.8 14.9-- 7.3 3.0---- 0.5------------
1999-07-25 20.5 26.5 15.1 14.4-- 3.3 2.3---- 0.0------------
1999-07-24 16.2 17.8 14.4 14.2-- 6.0 4.3---- 0.7------------
1999-07-23 16.0 19.9 11.6 9.2-- 7.0 3.3---- 0.3------------
1999-07-22 17.8 23.0 12.0 9.2-- 3.3 5.0---- 0.0------------
1999-07-21 21.7 27.0 16.6 14.3-- 5.0 4.7---- 0.0------------
1999-07-20 23.1 29.9 17.2 14.4-- 3.3 4.7---- 0.3------------
1999-07-19 24.7 32.4 15.9 11.3-- 0.0 2.3---- 0.0------------
1999-07-18 22.7 30.0 15.1 13.4-- 2.7 2.7---- 0.0------------
1999-07-17 19.3 24.9 13.1 9.2-- 5.0 2.7---- 0.0------------
1999-07-16 16.9 22.0 11.0 8.2-- 5.3 1.7---- 0.0------------
1999-07-15 17.6 21.1 14.1 11.0-- 4.0 3.7---- 0.0------------
1999-07-14 20.9 24.4 18.2 16.4-- 5.7 3.3---- 0.4------------
1999-07-13 23.1 29.6 17.5 14.7-- 4.0 3.3---- 1.7------------
1999-07-12 23.0 30.2 15.6 13.4-- 1.7 3.3---- 0.5------------
1999-07-11 21.8 28.4 14.1 10.2-- 0.3 4.7---- 0.0------------
1999-07-10 20.3 27.0 11.6 8.1-- 1.0 5.7---- 0.0------------
1999-07-09 19.2 24.8 14.1 13.4-- 3.0 6.3---- 0.0------------
1999-07-08 18.5 23.0 14.3 12.4-- 4.3 6.0---- 0.0------------
1999-07-07 16.9 19.2 14.3 13.7-- 7.7 2.7---- 1.8------------
1999-07-06 21.5 29.1 18.2 16.8-- 8.0 3.7---- 11.5------------
1999-07-05 26.0 34.5 18.1 16.6-- 4.7 5.7---- 0.9------------
1999-07-04 23.2 28.7 17.9 16.7-- 3.3 2.3---- 0.0------------
1999-07-03 21.0 27.3 14.3 13.4-- 1.7 2.0---- 0.0------------
1999-07-02 17.0 22.6 11.2 8.6-- 7.3 2.0---- 0.0------------
1999-07-01 18.0 22.0 16.3 16.0-- 6.0 2.3---- 4.4------------
1999-06-30 20.2 26.0 14.9 13.9-- 4.0 2.0---- 1.1------------
1999-06-29 18.0 23.6 10.6 9.3-- 3.3 2.0---- 0.0------------
1999-06-28 20.4 26.5 16.6 7.3-- 6.0 5.3---- 0.0------------
1999-06-27 18.6 24.9 10.9 7.3-- 7.0 3.0---- 0.0------------
1999-06-26 13.8 19.3 6.7 4.0-- 2.3 2.0---- 0.0------------
1999-06-25 12.0 16.5 5.3 2.5-- 3.3 2.7---- 1.6------------
1999-06-24 13.4 17.8 6.1 2.5-- 5.7 1.3---- 0.0------------
1999-06-23 13.1 17.1 8.9 8.2-- 4.3 3.3---- 0.0------------
1999-06-22 12.4 15.4 9.5 7.6-- 7.7 3.0---- 0.1------------
1999-06-21 15.0 19.8 12.0 10.8-- 6.0 3.0---- 0.9------------
1999-06-20 17.8 23.1 11.6 7.2-- 2.0 4.3---- 5.4------------
1999-06-19 16.8 21.2 12.0 10.6-- 6.0 3.0---- 0.0------------
1999-06-18 16.8 21.7 13.9 10.0-- 6.3 3.7---- 0.0------------
1999-06-17 18.0 23.1 10.7 7.8-- 3.0 0.3---- 0.0------------
1999-06-16 16.9 21.9 10.5 7.4-- 3.3 3.3---- 0.0------------
283.2 ms

 

Źródłem pochodzenia danych jest Instytut Meteorologii i Gospodarki Wodnej – Państwowy Instytut Badawczy. Dane Instytutu Meteorologii i Gospodarki Wodnej – Państwowego Instytutu Badawczego zostały przetworzone.

Dane źródłowe można odnaleźć na stronie https://dane.imgw.pl